createdAt,value
2018-01-03T00:00:05.624Z,0
2018-01-03T00:01:15.332Z,0
2018-01-03T00:02:25.304Z,0
2018-01-03T00:03:35.020Z,0
2018-01-03T00:04:44.990Z,0
2018-01-03T00:05:54.712Z,0
2018-01-03T00:07:04.684Z,0
2018-01-03T00:08:14.403Z,0
2018-01-03T00:09:24.111Z,0
2018-01-03T00:10:34.085Z,0
2018-01-03T00:11:43.794Z,0
2018-01-03T00:12:53.240Z,0
2018-01-03T00:14:02.950Z,0
2018-01-03T00:15:12.920Z,0
2018-01-03T00:16:22.902Z,0
2018-01-03T00:17:32.873Z,0
2018-01-03T00:18:42.848Z,0
2018-01-03T00:19:52.564Z,0
2018-01-03T00:21:02.272Z,0
2018-01-03T00:22:12.244Z,0
2018-01-03T00:23:22.218Z,0
2018-01-03T00:24:31.936Z,0
2018-01-03T00:25:41.905Z,0
2018-01-03T00:26:51.875Z,0
2018-01-03T00:28:01.844Z,0
2018-01-03T00:29:11.817Z,0
2018-01-03T00:30:21.804Z,0
2018-01-03T00:31:31.773Z,0
2018-01-03T00:32:41.743Z,0
2018-01-03T00:33:51.725Z,0
2018-01-03T00:35:01.440Z,0
2018-01-03T00:36:11.150Z,0
2018-01-03T00:37:21.131Z,0
2018-01-03T00:38:30.838Z,0
2018-01-03T00:39:40.809Z,0
2018-01-03T00:40:50.519Z,0
2018-01-03T00:42:00.502Z,0
2018-01-03T00:43:10.210Z,0
2018-01-03T00:44:20.184Z,0
2018-01-03T00:45:30.158Z,0
2018-01-03T00:46:39.338Z,0
2018-01-03T00:47:49.047Z,0
2018-01-03T00:48:58.752Z,0
2018-01-03T00:50:08.725Z,0
2018-01-03T00:51:18.763Z,0
2018-01-03T00:52:28.738Z,0
2018-01-03T00:53:38.446Z,0
2018-01-03T00:54:48.156Z,0
2018-01-03T00:55:57.871Z,0
2018-01-03T00:57:07.845Z,0
2018-01-03T00:58:17.816Z,0
2018-01-03T00:59:27.258Z,0
2018-01-03T01:00:36.968Z,0
2018-01-03T01:01:46.682Z,0
2018-01-03T01:02:56.395Z,0
2018-01-03T01:04:06.109Z,0
2018-01-03T01:05:15.860Z,0
2018-01-03T01:06:25.827Z,0
2018-01-03T01:07:35.804Z,0
2018-01-03T01:08:45.776Z,0
2018-01-03T01:09:55.747Z,0
2018-01-03T01:11:05.464Z,0
2018-01-03T01:12:15.182Z,0
2018-01-03T01:13:25.162Z,0
2018-01-03T01:14:34.870Z,0
2018-01-03T01:15:44.314Z,0
2018-01-03T01:16:54.283Z,0
2018-01-03T01:18:04.260Z,0
2018-01-03T01:19:13.703Z,0
2018-01-03T01:20:23.414Z,0
2018-01-03T01:21:33.133Z,0
2018-01-03T01:22:42.843Z,0
2018-01-03T01:23:52.816Z,0
2018-01-03T01:25:02.280Z,0
2018-01-03T01:26:12.257Z,0
2018-01-03T01:27:21.968Z,0
2018-01-03T01:28:31.940Z,0
2018-01-03T01:29:41.949Z,0
2018-01-03T01:30:51.919Z,0
2018-01-03T01:32:01.681Z,0
2018-01-03T01:33:11.695Z,0
2018-01-03T01:34:21.666Z,0
2018-01-03T01:35:31.640Z,0
2018-01-03T01:36:41.617Z,0
2018-01-03T01:37:51.590Z,0
2018-01-03T01:39:01.623Z,0
2018-01-03T01:40:10.803Z,0
2018-01-03T01:41:20.509Z,0
2018-01-03T01:42:30.219Z,0
2018-01-03T01:43:40.190Z,0
2018-01-03T01:44:50.166Z,0
2018-01-03T01:46:00.181Z,0
2018-01-03T01:47:09.959Z,0
2018-01-03T01:48:19.942Z,0
2018-01-03T01:49:29.657Z,0
2018-01-03T01:50:39.101Z,0
2018-01-03T01:51:49.080Z,0
2018-01-03T01:52:59.051Z,0
2018-01-03T01:54:09.023Z,0
2018-01-03T01:55:18.992Z,0
2018-01-03T01:56:28.964Z,0
2018-01-03T01:57:38.935Z,0
2018-01-03T01:58:48.642Z,0
2018-01-03T01:59:58.086Z,0
2018-01-03T02:01:08.062Z,0
2018-01-03T02:02:18.041Z,0
2018-01-03T02:03:28.015Z,0
2018-01-03T02:04:37.457Z,0
2018-01-03T02:05:47.170Z,0
2018-01-03T02:06:56.931Z,0
2018-01-03T02:08:06.907Z,0
2018-01-03T02:09:16.671Z,0
2018-01-03T02:10:26.377Z,0
2018-01-03T02:11:36.347Z,0
2018-01-03T02:12:46.320Z,0
2018-01-03T02:13:56.030Z,0
2018-01-03T02:15:05.739Z,0
2018-01-03T02:16:15.449Z,0
2018-01-03T02:17:25.421Z,0
2018-01-03T02:18:35.133Z,0
2018-01-03T02:19:45.105Z,0
2018-01-03T02:20:55.090Z,0
2018-01-03T02:22:05.062Z,0
2018-01-03T02:23:14.784Z,0
2018-01-03T02:24:24.756Z,0
2018-01-03T02:25:34.462Z,0
2018-01-03T02:26:43.909Z,0
2018-01-03T02:27:53.359Z,0
2018-01-03T02:29:03.331Z,0
2018-01-03T02:30:13.044Z,0
2018-01-03T02:31:22.755Z,0
2018-01-03T02:32:32.740Z,0
2018-01-03T02:33:42.714Z,0
2018-01-03T02:34:52.425Z,0
2018-01-03T02:36:02.417Z,0
2018-01-03T02:37:11.857Z,0
2018-01-03T02:38:21.866Z,0
2018-01-03T02:39:31.577Z,0
2018-01-03T02:40:41.293Z,0
2018-01-03T02:41:50.737Z,0
2018-01-03T02:43:00.446Z,0
2018-01-03T02:44:10.439Z,0
2018-01-03T02:45:20.150Z,0
2018-01-03T02:46:29.856Z,0
2018-01-03T02:47:39.827Z,0
2018-01-03T02:48:49.534Z,0
2018-01-03T02:49:59.513Z,0
2018-01-03T02:51:09.483Z,0
2018-01-03T02:52:19.463Z,0
2018-01-03T02:53:29.437Z,0
2018-01-03T02:54:39.408Z,0
2018-01-03T02:55:49.126Z,0
2018-01-03T02:56:59.097Z,0
2018-01-03T02:58:08.807Z,0
2018-01-03T02:59:18.776Z,0
2018-01-03T03:00:28.490Z,0
2018-01-03T03:01:38.459Z,0
2018-01-03T03:02:50.430Z,0
2018-01-03T03:04:00.133Z,0
2018-01-03T03:05:10.104Z,0
2018-01-03T03:06:20.075Z,0
2018-01-03T03:07:29.777Z,0
2018-01-03T03:08:39.537Z,0
2018-01-03T03:09:49.503Z,0
2018-01-03T03:10:59.207Z,0
2018-01-03T03:12:08.922Z,0
2018-01-03T03:13:18.906Z,0
2018-01-03T03:14:28.876Z,0
2018-01-03T03:15:38.847Z,0
2018-01-03T03:16:48.553Z,0
2018-01-03T03:17:58.526Z,0
2018-01-03T03:19:08.522Z,0
2018-01-03T03:20:18.602Z,0
2018-01-03T03:21:28.573Z,0
2018-01-03T03:22:38.279Z,0
2018-01-03T03:23:48.245Z,0
2018-01-03T03:24:58.251Z,0
2018-01-03T03:26:07.956Z,0
2018-01-03T03:27:17.926Z,0
2018-01-03T03:28:27.640Z,0
2018-01-03T03:29:37.653Z,0
2018-01-03T03:30:47.630Z,0
2018-01-03T03:31:57.604Z,0
2018-01-03T03:33:07.313Z,0
2018-01-03T03:34:17.281Z,0
2018-01-03T03:35:26.987Z,0
2018-01-03T03:36:36.701Z,0
2018-01-03T03:37:46.417Z,0
2018-01-03T03:38:56.129Z,0
2018-01-03T03:40:05.576Z,0
2018-01-03T03:41:15.554Z,0
2018-01-03T03:42:25.522Z,0
2018-01-03T03:43:35.231Z,0
2018-01-03T03:44:45.211Z,0
2018-01-03T03:45:55.184Z,0
2018-01-03T03:47:05.160Z,0
2018-01-03T03:48:14.866Z,0
2018-01-03T03:49:24.840Z,0
2018-01-03T03:50:34.548Z,0
2018-01-03T03:51:44.524Z,0
2018-01-03T03:52:54.231Z,0
2018-01-03T03:54:04.204Z,0
2018-01-03T03:55:14.182Z,0
2018-01-03T03:56:23.899Z,0
2018-01-03T03:57:33.917Z,0
2018-01-03T03:58:43.892Z,0
2018-01-03T03:59:53.861Z,0
2018-01-03T04:03:36.139Z,0
2018-01-03T04:04:46.115Z,0
2018-01-03T04:05:56.083Z,0
2018-01-03T04:07:05.834Z,0
2018-01-03T04:08:15.806Z,0
2018-01-03T04:09:25.256Z,0
2018-01-03T04:10:35.239Z,0
2018-01-03T04:11:45.212Z,0
2018-01-03T04:12:55.193Z,0
2018-01-03T04:14:05.168Z,0
2018-01-03T04:15:15.140Z,0
2018-01-03T04:16:24.849Z,0
2018-01-03T04:17:34.556Z,0
2018-01-03T04:18:44.553Z,0
2018-01-03T04:19:53.995Z,0
2018-01-03T04:21:03.975Z,0
2018-01-03T04:22:13.948Z,0
2018-01-03T04:23:23.920Z,0
2018-01-03T04:24:33.636Z,0
2018-01-03T04:25:43.347Z,0
2018-01-03T04:26:53.315Z,0
2018-01-03T04:28:03.286Z,0
2018-01-03T04:29:13.262Z,0
2018-01-03T04:30:23.239Z,0
2018-01-03T04:31:33.216Z,0
2018-01-03T04:32:43.190Z,0
2018-01-03T04:33:53.161Z,0
2018-01-03T04:35:03.132Z,0
2018-01-03T04:36:12.840Z,0
2018-01-03T04:37:22.814Z,0
2018-01-03T04:38:32.789Z,0
2018-01-03T04:39:42.812Z,0
2018-01-03T04:40:52.781Z,0
2018-01-03T04:42:02.760Z,0
2018-01-03T04:43:12.731Z,0
2018-01-03T04:44:22.701Z,0
2018-01-03T04:45:32.672Z,0
2018-01-03T04:46:42.646Z,0
2018-01-03T04:47:52.624Z,0
2018-01-03T04:49:02.598Z,0
2018-01-03T04:50:12.049Z,0
2018-01-03T04:51:22.023Z,0
2018-01-03T04:52:31.730Z,0
2018-01-03T04:53:41.438Z,0
2018-01-03T04:54:51.148Z,0
2018-01-03T04:56:01.122Z,0
2018-01-03T04:57:11.158Z,0
2018-01-03T04:58:21.142Z,0
2018-01-03T04:59:30.850Z,0
2018-01-03T05:00:40.831Z,0
2018-01-03T05:01:50.805Z,0
2018-01-03T05:03:00.784Z,0
2018-01-03T05:04:10.754Z,0
2018-01-03T05:05:20.507Z,0
2018-01-03T05:06:30.483Z,0
2018-01-03T05:07:40.188Z,0
2018-01-03T05:08:50.160Z,0
2018-01-03T05:09:59.874Z,0
2018-01-03T05:11:09.847Z,0
2018-01-03T05:12:19.827Z,0
2018-01-03T05:13:29.532Z,0
2018-01-03T05:14:38.976Z,0
2018-01-03T05:15:48.694Z,0
2018-01-03T05:16:58.405Z,0
2018-01-03T05:18:08.114Z,0
2018-01-03T05:19:17.822Z,0
2018-01-03T05:20:27.794Z,0
2018-01-03T05:21:37.510Z,0
2018-01-03T05:22:47.490Z,0
2018-01-03T05:23:57.198Z,0
2018-01-03T05:25:06.933Z,0
2018-01-03T05:26:16.910Z,0
2018-01-03T05:27:26.895Z,0
2018-01-03T05:28:36.341Z,0
2018-01-03T05:29:46.048Z,0
2018-01-03T05:30:56.022Z,0
2018-01-03T05:32:05.737Z,0
2018-01-03T05:33:15.721Z,0
2018-01-03T05:34:25.705Z,0
2018-01-03T05:35:35.149Z,0
2018-01-03T05:36:45.125Z,0
2018-01-03T05:37:54.830Z,0
2018-01-03T05:39:04.815Z,0
2018-01-03T05:40:14.524Z,0
2018-01-03T05:41:24.235Z,0
2018-01-03T05:42:34.211Z,0
2018-01-03T05:43:44.186Z,0
2018-01-03T05:44:54.157Z,0
2018-01-03T05:46:04.129Z,0
2018-01-03T05:47:14.112Z,0
2018-01-03T05:48:24.089Z,0
2018-01-03T05:49:33.806Z,0
2018-01-03T05:50:43.515Z,0
2018-01-03T05:51:53.223Z,0
2018-01-03T05:53:02.702Z,0
2018-01-03T05:54:12.678Z,0
2018-01-03T05:55:22.649Z,0
2018-01-03T05:56:32.358Z,0
2018-01-03T05:57:42.332Z,0
2018-01-03T05:58:52.310Z,0
2018-01-03T06:00:02.038Z,0
2018-01-03T06:01:12.027Z,0
2018-01-03T06:02:21.735Z,0
2018-01-03T06:03:31.705Z,0
2018-01-03T06:04:41.685Z,0
2018-01-03T06:05:51.391Z,0
2018-01-03T06:07:01.361Z,0
2018-01-03T06:08:10.803Z,0
2018-01-03T06:09:20.776Z,0
2018-01-03T06:10:30.485Z,0
2018-01-03T06:11:40.191Z,0
2018-01-03T06:12:50.177Z,0
2018-01-03T06:14:00.148Z,0
2018-01-03T06:15:09.859Z,0
2018-01-03T06:16:19.851Z,0
2018-01-03T06:17:29.829Z,0
2018-01-03T06:18:39.016Z,0
2018-01-03T06:19:48.988Z,0
2018-01-03T06:20:59.003Z,0
2018-01-03T06:22:08.981Z,0
2018-01-03T06:23:18.959Z,0
2018-01-03T06:24:28.935Z,0
2018-01-03T06:25:38.912Z,0
2018-01-03T06:26:48.883Z,0
2018-01-03T06:27:58.866Z,0
2018-01-03T06:29:08.841Z,0
2018-01-03T06:30:18.287Z,0
2018-01-03T06:31:28.259Z,0
2018-01-03T06:32:37.967Z,0
2018-01-03T06:33:47.942Z,0
2018-01-03T06:34:57.385Z,0
2018-01-03T06:36:07.399Z,0
2018-01-03T06:37:17.421Z,0
2018-01-03T06:38:27.400Z,0
2018-01-03T06:39:37.372Z,0
2018-01-03T06:40:47.079Z,0
2018-01-03T06:41:56.788Z,0
2018-01-03T06:43:06.496Z,0
2018-01-03T06:44:16.475Z,0
2018-01-03T06:45:26.502Z,0
2018-01-03T06:46:36.210Z,0
2018-01-03T06:47:46.182Z,0
2018-01-03T06:48:56.156Z,0
2018-01-03T06:50:05.599Z,0
2018-01-03T06:51:15.576Z,0
2018-01-03T06:52:27.551Z,0
2018-01-03T06:53:37.520Z,0
2018-01-03T06:54:47.226Z,0
2018-01-03T06:55:57.208Z,0
2018-01-03T06:57:06.938Z,0
2018-01-03T06:58:16.913Z,0
2018-01-03T06:59:26.881Z,0
2018-01-03T07:00:36.895Z,0
2018-01-03T07:01:46.874Z,0
2018-01-03T07:02:56.852Z,0
2018-01-03T07:04:06.828Z,0
2018-01-03T07:05:16.808Z,0
2018-01-03T07:06:26.781Z,0
2018-01-03T07:07:36.490Z,0
2018-01-03T07:08:45.940Z,0
2018-01-03T07:09:55.650Z,0
2018-01-03T07:11:05.099Z,0
2018-01-03T07:12:14.546Z,0
2018-01-03T07:13:24.531Z,0
2018-01-03T07:14:34.008Z,0
2018-01-03T07:15:43.982Z,0
2018-01-03T07:16:53.956Z,0
2018-01-03T07:18:03.927Z,0
2018-01-03T07:19:13.905Z,0
2018-01-03T07:20:23.876Z,0
2018-01-03T07:21:33.325Z,0
2018-01-03T07:22:43.298Z,0
2018-01-03T07:23:53.029Z,0
2018-01-03T07:25:03.011Z,0
2018-01-03T07:26:12.193Z,0
2018-01-03T07:27:22.210Z,0
2018-01-03T07:28:31.654Z,0
2018-01-03T07:29:41.099Z,0
2018-01-03T07:30:51.070Z,0
2018-01-03T07:32:00.780Z,4
2018-01-03T07:33:10.535Z,4
2018-01-03T07:34:20.516Z,4
2018-01-03T07:35:30.495Z,0
2018-01-03T07:36:40.473Z,0
2018-01-03T07:37:50.443Z,4
2018-01-03T07:39:00.158Z,4
2018-01-03T07:40:10.202Z,4
2018-01-03T07:41:19.918Z,4
2018-01-03T07:42:29.894Z,8
2018-01-03T07:43:39.865Z,4
2018-01-03T07:44:51.839Z,8
2018-01-03T07:46:01.810Z,8
2018-01-03T07:47:11.521Z,8
2018-01-03T07:48:21.498Z,12
2018-01-03T07:49:31.207Z,12
2018-01-03T07:50:41.182Z,12
2018-01-03T07:51:51.156Z,12
2018-01-03T07:53:00.598Z,16
2018-01-03T07:54:10.585Z,16
2018-01-03T07:55:20.294Z,20
2018-01-03T07:56:30.266Z,24
2018-01-03T07:57:39.973Z,28
2018-01-03T07:58:49.151Z,28
2018-01-03T07:59:59.134Z,32
2018-01-03T08:01:08.867Z,32
2018-01-03T08:02:18.581Z,40
2018-01-03T08:03:28.559Z,36
2018-01-03T08:04:38.534Z,40
2018-01-03T08:05:48.522Z,44
2018-01-03T08:06:58.495Z,48
2018-01-03T08:08:08.239Z,52
2018-01-03T08:09:18.212Z,56
2018-01-03T08:10:28.183Z,64
2018-01-03T08:11:38.161Z,68
2018-01-03T08:12:47.653Z,76
2018-01-03T08:13:57.364Z,80
2018-01-03T08:15:07.341Z,88
2018-01-03T08:16:17.094Z,96
2018-01-03T08:17:27.067Z,104
2018-01-03T08:18:37.039Z,112
2018-01-03T08:19:46.752Z,116
2018-01-03T08:20:56.725Z,124
2018-01-03T08:22:06.703Z,132
2018-01-03T08:23:16.682Z,136
2018-01-03T08:24:26.391Z,140
2018-01-03T08:25:36.375Z,148
2018-01-03T08:26:46.343Z,152
2018-01-03T08:27:56.318Z,156
2018-01-03T08:29:06.287Z,168
2018-01-03T08:30:16.266Z,176
2018-01-03T08:31:25.979Z,184
2018-01-03T08:32:35.957Z,196
2018-01-03T08:33:45.665Z,208
2018-01-03T08:34:55.643Z,228
2018-01-03T08:36:05.668Z,244
2018-01-03T08:37:15.694Z,248
2018-01-03T08:38:25.409Z,256
2018-01-03T08:39:35.123Z,268
2018-01-03T08:40:45.115Z,276
2018-01-03T08:41:54.834Z,296
2018-01-03T08:43:04.542Z,312
2018-01-03T08:44:14.296Z,328
2018-01-03T08:45:24.009Z,336
2018-01-03T08:46:33.982Z,340
2018-01-03T08:47:43.694Z,352
2018-01-03T08:48:53.441Z,352
2018-01-03T08:50:03.416Z,352
2018-01-03T08:51:13.127Z,356
2018-01-03T08:52:23.105Z,368
2018-01-03T08:53:33.113Z,376
2018-01-03T08:54:43.099Z,380
2018-01-03T08:55:52.544Z,392
2018-01-03T08:57:02.248Z,404
2018-01-03T08:58:12.221Z,420
2018-01-03T08:59:22.196Z,436
2018-01-03T09:00:31.647Z,456
2018-01-03T09:01:41.373Z,452
2018-01-03T09:02:51.349Z,460
2018-01-03T09:04:01.059Z,460
2018-01-03T09:05:11.034Z,464
2018-01-03T09:06:21.020Z,472
2018-01-03T09:07:30.997Z,476
2018-01-03T09:08:40.973Z,484
2018-01-03T09:09:50.946Z,504
2018-01-03T09:11:00.926Z,508
2018-01-03T09:12:10.371Z,508
2018-01-03T09:13:20.345Z,512
2018-01-03T09:14:30.350Z,532
2018-01-03T09:15:40.331Z,560
2018-01-03T09:16:50.040Z,576
2018-01-03T09:17:59.747Z,596
2018-01-03T09:19:09.729Z,616
2018-01-03T09:20:19.710Z,628
2018-01-03T09:21:29.419Z,652
2018-01-03T09:22:39.390Z,672
2018-01-03T09:23:49.365Z,712
2018-01-03T09:24:59.342Z,736
2018-01-03T09:26:09.052Z,748
2018-01-03T09:27:19.029Z,756
2018-01-03T09:28:28.472Z,768
2018-01-03T09:29:38.183Z,788
2018-01-03T09:30:48.158Z,816
2018-01-03T09:31:57.871Z,860
2018-01-03T09:33:07.846Z,900
2018-01-03T09:34:17.826Z,924
2018-01-03T09:35:27.805Z,984
2018-01-03T09:36:37.783Z,988
2018-01-03T09:37:47.497Z,1040
2018-01-03T09:38:57.473Z,1068
2018-01-03T09:40:07.539Z,1068
2018-01-03T09:41:16.988Z,1072
2018-01-03T09:42:26.697Z,1112
2018-01-03T09:43:36.682Z,1124
2018-01-03T09:44:46.401Z,1180
2018-01-03T09:45:56.380Z,1232
2018-01-03T09:47:06.092Z,1288
2018-01-03T09:48:15.809Z,1308
2018-01-03T09:49:25.260Z,1332
2018-01-03T09:50:34.978Z,1268
2018-01-03T09:51:44.954Z,1312
2018-01-03T09:52:54.400Z,1296
2018-01-03T09:54:04.114Z,1256
2018-01-03T09:55:13.829Z,1272
2018-01-03T09:56:23.636Z,1212
2018-01-03T09:57:33.345Z,1228
2018-01-03T09:58:43.058Z,1260
2018-01-03T09:59:53.057Z,1312
2018-01-03T10:01:03.030Z,1344
2018-01-03T10:02:12.773Z,1356
2018-01-03T10:03:22.755Z,1340
2018-01-03T10:04:32.741Z,1312
2018-01-03T10:05:42.715Z,1296
2018-01-03T10:06:52.705Z,1284
2018-01-03T10:08:02.689Z,1276
2018-01-03T10:09:12.412Z,1260
2018-01-03T10:10:23.505Z,1280
2018-01-03T10:11:32.954Z,1324
2018-01-03T10:12:42.929Z,1396
2018-01-03T10:13:52.641Z,1492
2018-01-03T10:15:02.091Z,1544
2018-01-03T10:16:11.540Z,1632
2018-01-03T10:17:21.521Z,1668
2018-01-03T10:18:31.225Z,1768
2018-01-03T10:19:41.198Z,1808
2018-01-03T10:20:50.919Z,1912
2018-01-03T10:22:01.796Z,1968
2018-01-03T10:23:11.507Z,2064
2018-01-03T10:24:20.688Z,2156
2018-01-03T10:25:30.407Z,2148
2018-01-03T10:26:40.116Z,2160
2018-01-03T10:27:50.089Z,2188
2018-01-03T10:29:00.064Z,2192
2018-01-03T10:30:09.511Z,2240
2018-01-03T10:31:19.490Z,2228
2018-01-03T10:32:29.266Z,2196
2018-01-03T10:33:39.245Z,2196
2018-01-03T10:34:48.965Z,2196
2018-01-03T10:35:58.936Z,2144
2018-01-03T10:37:08.909Z,2096
2018-01-03T10:38:18.621Z,2036
2018-01-03T10:39:28.067Z,1992
2018-01-03T10:40:37.778Z,1904
2018-01-03T10:41:47.750Z,1848
2018-01-03T10:42:57.464Z,1812
2018-01-03T10:44:07.176Z,1724
2018-01-03T10:45:17.157Z,1660
2018-01-03T10:46:27.139Z,1620
2018-01-03T10:47:36.851Z,1576
2018-01-03T10:48:46.826Z,1560
2018-01-03T10:49:56.539Z,1560
2018-01-03T10:51:06.256Z,1568
2018-01-03T10:52:15.455Z,1612
2018-01-03T10:53:25.483Z,1648
2018-01-03T10:54:35.455Z,1644
2018-01-03T10:55:45.167Z,1660
2018-01-03T10:56:54.616Z,1680
2018-01-03T10:58:04.640Z,1728
2018-01-03T10:59:14.619Z,1732
2018-01-03T11:00:24.596Z,1708
2018-01-03T11:01:34.571Z,1720
2018-01-03T11:02:44.550Z,1724
2018-01-03T11:03:54.527Z,1736
2018-01-03T11:05:04.570Z,1788
2018-01-03T11:06:14.291Z,1784
2018-01-03T11:07:24.267Z,1784
2018-01-03T11:08:33.713Z,1752
2018-01-03T11:09:43.748Z,1720
2018-01-03T11:10:53.193Z,1720
2018-01-03T11:12:03.175Z,1716
2018-01-03T11:13:12.891Z,1700
2018-01-03T11:14:22.606Z,1704
2018-01-03T11:15:32.322Z,1732
2018-01-03T11:16:41.885Z,1836
2018-01-03T11:17:51.594Z,1912
2018-01-03T11:19:01.303Z,1964
2018-01-03T11:20:12.754Z,1996
2018-01-03T11:21:22.751Z,1972
2018-01-03T11:22:32.724Z,1928
2018-01-03T11:23:42.438Z,1892
2018-01-03T11:24:52.149Z,1872
2018-01-03T11:26:01.594Z,1888
2018-01-03T11:27:11.046Z,1884
2018-01-03T11:28:21.033Z,1824
2018-01-03T11:29:30.743Z,1824
2018-01-03T11:30:40.719Z,1756
2018-01-03T11:31:50.691Z,1760
2018-01-03T11:33:00.405Z,1716
2018-01-03T11:34:10.118Z,1688
2018-01-03T11:35:20.094Z,1672
2018-01-03T11:36:30.069Z,1644
2018-01-03T11:37:39.784Z,1600
2018-01-03T11:38:49.495Z,1584
2018-01-03T11:39:59.205Z,1564
2018-01-03T11:41:09.179Z,1476
2018-01-03T11:42:19.163Z,1428
2018-01-03T11:43:28.610Z,1384
2018-01-03T11:44:38.061Z,1340
2018-01-03T11:45:47.508Z,1308
2018-01-03T11:46:56.957Z,1308
2018-01-03T11:48:06.939Z,1312
2018-01-03T11:49:16.915Z,1284
2018-01-03T11:50:26.903Z,1276
2018-01-03T11:51:36.353Z,1292
2018-01-03T11:52:46.332Z,1308
2018-01-03T11:53:56.044Z,1308
2018-01-03T11:55:05.836Z,1356
2018-01-03T11:56:15.814Z,1416
2018-01-03T11:57:25.530Z,1444
2018-01-03T11:58:35.249Z,1472
2018-01-03T11:59:45.219Z,1472
2018-01-03T12:00:55.196Z,1492
2018-01-03T12:02:05.177Z,1484
2018-01-03T12:03:15.164Z,1464
2018-01-03T12:04:25.199Z,1456
2018-01-03T12:05:35.173Z,1460
2018-01-03T12:06:45.146Z,1492
2018-01-03T12:07:55.123Z,1512
2018-01-03T12:09:05.097Z,1496
2018-01-03T12:10:14.806Z,1488
2018-01-03T12:11:24.785Z,1484
2018-01-03T12:12:34.775Z,1492
2018-01-03T12:13:44.757Z,1492
2018-01-03T12:14:54.203Z,1508
2018-01-03T12:16:03.917Z,1516
2018-01-03T12:17:13.892Z,1504
2018-01-03T12:18:23.866Z,1504
2018-01-03T12:19:33.576Z,1528
2018-01-03T12:20:43.288Z,1508
2018-01-03T12:21:53.265Z,1460
2018-01-03T12:23:03.245Z,1424
2018-01-03T12:24:13.222Z,1392
2018-01-03T12:25:23.199Z,1324
2018-01-03T12:26:33.218Z,1276
2018-01-03T12:27:43.190Z,1260
2018-01-03T12:28:53.167Z,1252
2018-01-03T12:30:03.147Z,1252
2018-01-03T12:31:12.857Z,1252
2018-01-03T12:32:22.836Z,1248
2018-01-03T12:33:32.831Z,1228
2018-01-03T12:34:42.599Z,1216
2018-01-03T12:35:52.048Z,1192
2018-01-03T12:37:01.855Z,1224
2018-01-03T12:38:11.834Z,1276
2018-01-03T12:39:21.544Z,1328
2018-01-03T12:40:31.255Z,1360
2018-01-03T12:41:40.967Z,1372
2018-01-03T12:42:50.419Z,1352
2018-01-03T12:44:00.397Z,1328
2018-01-03T12:45:10.407Z,1308
2018-01-03T12:46:20.391Z,1304
2018-01-03T12:47:30.119Z,1284
2018-01-03T12:48:40.091Z,1248
2018-01-03T12:49:49.837Z,1216
2018-01-03T12:50:59.307Z,1188
2018-01-03T12:52:09.284Z,1184
2018-01-03T12:53:19.265Z,1196
2018-01-03T12:54:28.984Z,1208
2018-01-03T12:55:38.699Z,1212
2018-01-03T12:56:48.728Z,1192
2018-01-03T12:57:58.172Z,1144
2018-01-03T12:59:08.150Z,1084
2018-01-03T13:00:18.128Z,1028
2018-01-03T13:01:28.132Z,1008
2018-01-03T13:02:37.902Z,984
2018-01-03T13:03:47.874Z,948
2018-01-03T13:04:57.854Z,916
2018-01-03T13:06:07.303Z,880
2018-01-03T13:07:16.753Z,848
2018-01-03T13:08:26.267Z,832
2018-01-03T13:09:35.712Z,824
2018-01-03T13:10:45.721Z,820
2018-01-03T13:11:54.903Z,808
2018-01-03T13:13:04.656Z,792
2018-01-03T13:14:14.637Z,792
2018-01-03T13:15:24.356Z,772
2018-01-03T13:16:34.332Z,772
2018-01-03T13:17:44.307Z,780
2018-01-03T13:18:54.070Z,776
2018-01-03T13:20:04.052Z,784
2018-01-03T13:21:13.766Z,780
2018-01-03T13:22:23.749Z,768
2018-01-03T13:23:33.464Z,760
2018-01-03T13:24:43.176Z,748
2018-01-03T13:25:52.624Z,736
2018-01-03T13:27:02.602Z,724
2018-01-03T13:28:12.576Z,700
2018-01-03T13:29:22.024Z,668
2018-01-03T13:30:32.011Z,628
2018-01-03T13:31:41.458Z,600
2018-01-03T13:32:51.432Z,584
2018-01-03T13:34:00.878Z,576
2018-01-03T13:35:10.861Z,556
2018-01-03T13:36:20.855Z,544
2018-01-03T13:37:30.564Z,532
2018-01-03T13:38:40.282Z,516
2018-01-03T13:39:49.992Z,500
2018-01-03T13:40:59.704Z,484
2018-01-03T13:42:09.733Z,464
2018-01-03T13:43:18.922Z,460
2018-01-03T13:44:28.645Z,448
2018-01-03T13:45:38.369Z,432
2018-01-03T13:46:48.382Z,416
2018-01-03T13:47:58.103Z,404
2018-01-03T13:49:08.085Z,392
2018-01-03T13:50:18.061Z,388
2018-01-03T13:51:28.041Z,380
2018-01-03T13:52:38.024Z,376
2018-01-03T13:53:48.008Z,368
2018-01-03T13:54:57.724Z,364
2018-01-03T13:56:07.478Z,372
2018-01-03T13:57:17.454Z,372
2018-01-03T13:58:27.436Z,356
2018-01-03T13:59:36.900Z,340
2018-01-03T14:00:46.876Z,324
2018-01-03T14:01:56.861Z,304
2018-01-03T14:03:06.847Z,292
2018-01-03T14:04:16.563Z,276
2018-01-03T14:05:26.279Z,264
2018-01-03T14:06:36.255Z,248
2018-01-03T14:07:46.240Z,236
2018-01-03T14:08:56.001Z,224
2018-01-03T14:10:05.452Z,216
2018-01-03T14:11:15.166Z,204
2018-01-03T14:12:25.155Z,192
2018-01-03T14:13:35.150Z,180
2018-01-03T14:14:45.124Z,172
2018-01-03T14:15:55.101Z,160
2018-01-03T14:17:04.554Z,144
2018-01-03T14:18:14.003Z,140
2018-01-03T14:19:23.977Z,128
2018-01-03T14:20:33.956Z,120
2018-01-03T14:21:43.937Z,112
2018-01-03T14:22:53.645Z,108
2018-01-03T14:24:02.833Z,108
2018-01-03T14:25:12.290Z,100
2018-01-03T14:26:22.270Z,92
2018-01-03T14:27:32.248Z,88
2018-01-03T14:28:41.705Z,80
2018-01-03T14:29:51.416Z,76
2018-01-03T14:31:01.391Z,68
2018-01-03T14:32:11.379Z,64
2018-01-03T14:33:21.093Z,64
2018-01-03T14:34:30.814Z,56
2018-01-03T14:35:40.790Z,48
2018-01-03T14:36:50.235Z,48
2018-01-03T14:38:00.207Z,44
2018-01-03T14:39:09.955Z,40
2018-01-03T14:40:19.677Z,36
2018-01-03T14:41:29.661Z,32
2018-01-03T14:42:39.106Z,28
2018-01-03T14:43:48.819Z,28
2018-01-03T14:44:58.806Z,24
2018-01-03T14:46:08.790Z,24
2018-01-03T14:47:18.501Z,20
2018-01-03T14:48:28.478Z,16
2018-01-03T14:49:37.927Z,16
2018-01-03T14:50:47.642Z,16
2018-01-03T14:51:57.620Z,12
2018-01-03T14:53:07.113Z,8
2018-01-03T14:54:16.828Z,8
2018-01-03T14:55:26.804Z,8
2018-01-03T14:56:36.775Z,8
2018-01-03T14:57:46.220Z,4
2018-01-03T14:58:56.196Z,8
2018-01-03T15:00:05.906Z,4
2018-01-03T15:01:15.889Z,8
2018-01-03T15:02:25.877Z,4
2018-01-03T15:03:35.863Z,4
2018-01-03T15:04:45.576Z,0
2018-01-03T15:05:55.553Z,0
2018-01-03T15:07:05.262Z,4
2018-01-03T15:08:15.235Z,4
2018-01-03T15:09:24.947Z,4
2018-01-03T15:10:34.658Z,0
2018-01-03T15:11:44.366Z,0
2018-01-03T15:12:53.814Z,0
2018-01-03T15:14:03.534Z,0
2018-01-03T15:15:13.513Z,0
2018-01-03T15:16:23.487Z,0
2018-01-03T15:17:33.464Z,0
2018-01-03T15:18:43.436Z,0
2018-01-03T15:19:53.414Z,0
2018-01-03T15:21:03.126Z,0
2018-01-03T15:22:12.571Z,0
2018-01-03T15:23:22.561Z,0
2018-01-03T15:24:32.271Z,0
2018-01-03T15:25:41.986Z,0
2018-01-03T15:26:51.435Z,0
2018-01-03T15:28:01.150Z,0
2018-01-03T15:29:10.598Z,0
2018-01-03T15:30:21.163Z,0
2018-01-03T15:31:30.875Z,0
2018-01-03T15:32:40.850Z,0
2018-01-03T15:33:50.564Z,0
2018-01-03T15:35:00.539Z,0
2018-01-03T15:36:10.250Z,0
2018-01-03T15:37:19.959Z,0
2018-01-03T15:38:29.939Z,0
2018-01-03T15:39:39.913Z,0
2018-01-03T15:40:49.628Z,0
2018-01-03T15:41:59.339Z,0
2018-01-03T15:43:09.318Z,0
2018-01-03T15:44:19.030Z,0
2018-01-03T15:45:29.006Z,0
2018-01-03T15:46:38.724Z,0
2018-01-03T15:47:48.698Z,0
2018-01-03T15:48:58.679Z,0
2018-01-03T15:50:08.392Z,0
2018-01-03T15:51:18.372Z,0
2018-01-03T15:52:28.344Z,0
2018-01-03T15:53:38.056Z,0
2018-01-03T15:54:47.503Z,0
2018-01-03T15:55:56.952Z,0
2018-01-03T15:57:06.664Z,0
2018-01-03T15:58:16.379Z,0
2018-01-03T15:59:28.094Z,0
2018-01-03T16:00:38.072Z,0
2018-01-03T16:01:47.857Z,0
2018-01-03T16:02:57.634Z,0
2018-01-03T16:04:07.355Z,0
2018-01-03T16:05:17.065Z,0
2018-01-03T16:06:27.042Z,0
2018-01-03T16:07:37.028Z,0
2018-01-03T16:08:47.010Z,0
2018-01-03T16:09:56.728Z,0
2018-01-03T16:11:06.442Z,0
2018-01-03T16:12:15.622Z,0
2018-01-03T16:13:25.595Z,0
2018-01-03T16:14:35.329Z,0
2018-01-03T16:15:44.784Z,0
2018-01-03T16:16:53.972Z,0
2018-01-03T16:18:03.691Z,0
2018-01-03T16:19:13.675Z,0
2018-01-03T16:20:23.652Z,0
2018-01-03T16:21:33.363Z,0
2018-01-03T16:22:43.081Z,0
2018-01-03T16:23:52.790Z,0
2018-01-03T16:25:02.512Z,0
2018-01-03T16:26:12.488Z,0
2018-01-03T16:27:21.935Z,0
2018-01-03T16:28:31.913Z,0
2018-01-03T16:29:41.365Z,0
2018-01-03T16:30:51.340Z,0
2018-01-03T16:32:01.052Z,0
2018-01-03T16:33:10.765Z,0
2018-01-03T16:34:20.739Z,0
2018-01-03T16:35:30.452Z,0
2018-01-03T16:36:40.162Z,0
2018-01-03T16:37:50.139Z,0